Buffalo, WY (82834)

11:46 PM MDT on July 27, 2016 (GMT -0600)
Buffalo | | Change Station

Elev 4708 ft 44.34 °N, 106.70 °W | Updated 6 seconds ago

Mostly Cloudy
Mostly Cloudy
65.5 °F
Feels Like 65.5 °F
N
1.1
Wind Variable Wind from West
Gusts 2.5 mph

Today
High -- | Low -- °F
--% Chance of Precip.
Yesterday
High -- | Low -- °F
Precip. -- in
Pressure 30.22 in
Visibility 10.0 miles
Clouds Few 9000 ft
Dew Point 56 °F
Humidity 72%
Rainfall 0.00 in
Snow Depth Not available.
5:49 AM 8:36 PM
Waning Crescent, 35% visible
SPECI KBYG 280536Z AUTO 07006G15KT 10SM VCTS FEW090 19/11 A3022 RMK AO2 LTG DSNT ALQDS RAE25 TSB01E30 P0001 T01890111
Pressure 30.22 in
Visibility 10.0 miles
Clouds Few 9000 ft
Dew Point 56 °F
Humidity 72%
Rainfall 0.00 in
Snow Depth Not available.
5:49 AM 8:36 PM
Waning Crescent, 35% visible
SPECI KBYG 280536Z AUTO 07006G15KT 10SM VCTS FEW090 19/11 A3022 RMK AO2 LTG DSNT ALQDS RAE25 TSB01E30 P0001 T01890111

10-Day Weather Forecast

Almanac

Astronomy

Jul. 27, 2016 Rise Set
Actual Time
Civil Twilight
Nautical Twilight
Astronomical Twilight
Moon
Length of Visible Light
Length of Day
Tomorrow will be .
, % of the Moon is Illuminated

Today's Extremes

State Highs State Lows

Community

WunderPhotos

Upload Photos

1,928,064 photos uploaded!

WunderBlog® & News

Nearby

Air Quality

  Air Quality AQ Index Pollutant
Not available.

Snow Depth

Station Depth Elevation

Earthquake Activity

City Distance Mag. Time & Date
Minimum magnitude displayed is 2.5.

Coastal Water Temperatures

Place Temperature

Stations

Nearby Weather Stations

Station Location Temp. Windchill Dew Point Humidity Wind Precip. Elev Updated Type
                   

Watches & Warnings

There are currently no watches in effect.